createdAt,value
2023-04-17T00:01:55.739Z,39.60
2023-04-17T00:11:59.066Z,43.53
2023-04-17T00:22:03.604Z,45.07
2023-04-17T00:32:07.986Z,45.70
2023-04-17T00:42:12.755Z,48.00
2023-04-17T00:52:19.227Z,45.77
2023-04-17T01:02:25.754Z,50.23
2023-04-17T01:12:29.590Z,49.37
2023-04-17T01:22:35.419Z,50.67
2023-04-17T01:32:40.210Z,50.93
2023-04-17T01:42:43.624Z,52.60
2023-04-17T01:52:48.533Z,53.43
2023-04-17T02:02:52.071Z,52.17
2023-04-17T02:12:56.577Z,52.70
2023-04-17T02:23:00.331Z,54.77
2023-04-17T02:33:04.979Z,53.67
2023-04-17T02:43:09.282Z,54.07
2023-04-17T02:53:15.808Z,54.30
2023-04-17T03:03:19.214Z,54.77
2023-04-17T03:13:24.300Z,53.97
2023-04-17T03:23:28.952Z,54.10
2023-04-17T03:33:34.013Z,52.07
2023-04-17T03:43:37.455Z,53.53
2023-04-17T03:53:41.978Z,51.37
2023-04-17T04:03:48.405Z,52.17
2023-04-17T04:13:53.613Z,53.17
2023-04-17T04:23:57.289Z,51.53
2023-04-17T04:34:02.251Z,54.17
2023-04-17T04:44:06.505Z,54.20
2023-04-17T04:54:14.413Z,54.03
2023-04-17T05:04:25.151Z,54.27
2023-04-17T05:14:34.730Z,52.97
2023-04-17T05:24:38.530Z,52.30
2023-04-17T05:34:43.528Z,52.43
2023-04-17T05:44:47.291Z,48.27
2023-04-17T05:54:52.765Z,48.67
2023-04-17T06:04:58.424Z,45.77
2023-04-17T06:15:05.675Z,43.87
2023-04-17T06:25:11.819Z,44.43
2023-04-17T06:35:17.407Z,42.30
2023-04-17T06:45:25.356Z,38.78
2023-04-17T06:55:31.124Z,34.60
2023-04-17T07:05:33.813Z,32.93
2023-04-17T07:15:38.196Z,33.97
2023-04-17T07:25:41.365Z,31.43
2023-04-17T07:35:46.824Z,28.63
2023-04-17T07:45:50.098Z,30.23
2023-04-17T07:55:54.954Z,30.80
2023-04-17T08:05:59.249Z,33.00
2023-04-17T08:16:04.408Z,28.20
2023-04-17T08:26:08.158Z,25.83
2023-04-17T08:36:12.431Z,23.60
2023-04-17T08:46:16.859Z,24.37
2023-04-17T08:56:22.385Z,21.77
2023-04-17T09:06:25.616Z,20.90
2023-04-17T09:16:31.769Z,19.67
2023-04-17T09:26:34.584Z,19.93
2023-04-17T09:36:41.727Z,17.70
2023-04-17T09:46:48.028Z,15.20
2023-04-17T09:56:55.983Z,14.03
2023-04-17T10:06:59.565Z,11.97
2023-04-17T10:17:23.896Z,10.43
2023-04-17T10:27:46.525Z,11.47
2023-04-17T10:38:07.541Z,7.83
2023-04-17T10:48:20.933Z,7.67
2023-04-17T10:58:31.662Z,6.93
2023-04-17T11:08:35.442Z,8.63
2023-04-17T11:18:40.111Z,6.53
2023-04-17T11:28:43.080Z,5.93
2023-04-17T11:38:49.265Z,6.13
2023-04-17T11:48:52.478Z,6.77
2023-04-17T11:58:58.568Z,5.03
2023-04-17T12:09:02.381Z,4.57
2023-04-17T12:29:43.239Z,4.63
2023-04-17T12:49:51.572Z,4.87
2023-04-17T12:59:56.369Z,2.37
2023-04-17T13:09:59.393Z,2.67
2023-04-17T13:30:28.433Z,1.97
2023-04-17T13:40:32.973Z,1.83
2023-04-17T13:50:36.244Z,1.50
2023-04-17T14:00:40.736Z,2.10
2023-04-17T14:10:43.973Z,1.70
2023-04-17T14:20:48.711Z,1.60
2023-04-17T14:30:52.191Z,2.17
2023-04-17T14:40:56.785Z,1.80
2023-04-17T14:51:01.703Z,2.70
2023-04-17T15:01:06.289Z,2.00
2023-04-17T15:11:09.911Z,2.60
2023-04-17T15:21:14.395Z,4.10
2023-04-17T15:31:17.574Z,3.73
2023-04-17T15:41:21.939Z,3.93
2023-04-17T15:51:25.137Z,2.97
2023-04-17T16:01:29.712Z,3.13
2023-04-17T16:11:34.117Z,3.63
2023-04-17T16:21:39.112Z,4.73
2023-04-17T16:31:43.566Z,3.97
2023-04-17T16:41:48.203Z,4.30
2023-04-17T16:51:51.293Z,4.00
2023-04-17T17:01:55.681Z,3.97
2023-04-17T17:11:58.591Z,3.73
2023-04-17T17:22:04.570Z,4.00
2023-04-17T17:32:09.214Z,3.20
2023-04-17T17:42:14.343Z,3.43
2023-04-17T17:52:17.942Z,3.83
2023-04-17T18:02:22.382Z,3.43
2023-04-17T18:12:25.707Z,3.87
2023-04-17T18:22:30.306Z,4.00
2023-04-17T18:32:33.400Z,4.00
2023-04-17T18:42:37.985Z,4.73
2023-04-17T18:52:44.039Z,4.97
2023-04-17T19:02:51.645Z,5.00
2023-04-17T19:12:54.645Z,3.77
2023-04-17T19:22:59.571Z,4.60
2023-04-17T19:33:02.757Z,4.73
2023-04-17T19:43:07.296Z,4.40
2023-04-17T19:53:10.825Z,5.23
2023-04-17T20:03:15.241Z,5.63
2023-04-17T20:13:18.911Z,6.87
2023-04-17T20:23:23.537Z,6.87
2023-04-17T20:33:27.004Z,6.13
2023-04-17T20:43:33.017Z,7.13
2023-04-17T20:53:36.074Z,7.90
2023-04-17T21:03:40.546Z,7.23
2023-04-17T21:13:44.058Z,6.10
2023-04-17T21:23:48.468Z,6.97
2023-04-17T21:33:51.719Z,6.73
2023-04-17T21:43:56.118Z,6.33
2023-04-17T21:53:59.060Z,7.17
2023-04-17T22:04:03.352Z,8.47
2023-04-17T22:14:06.400Z,7.53
2023-04-17T22:24:11.542Z,6.60
2023-04-17T22:34:14.899Z,7.57
2023-04-17T22:44:19.722Z,6.93
2023-04-17T22:54:23.322Z,7.07
2023-04-17T23:04:27.691Z,7.20
2023-04-17T23:14:30.514Z,8.00
2023-04-17T23:24:35.290Z,7.73
2023-04-17T23:34:38.625Z,10.00
2023-04-17T23:44:43.261Z,9.00
2023-04-17T23:54:46.178Z,8.90
